Time;durP1;ratioP1;P1;durP2;ratioP2;P2;SDS_P1;SDS_P2;PMS_P1;PMS_P2;Temp;Humidity;BMP_temperature;BMP_pressure;BME280_temperature;BME280_humidity;BME280_pressure;Samples;Min_cycle;Max_cycle;Signal;HPM_P1;HPM_P2
2022/10/06 00:01:47;;;;;;;6.32;5.18;;;14.20;99.90;;;;;;4983718;28;20522;-83
2022/10/06 00:04:14;;;;;;;7.15;4.55;;;13.90;99.90;;;;;;4981787;28;20211;-87
2022/10/06 00:06:42;;;;;;;4.40;4.00;;;14.10;99.90;;;;;;4984001;28;20262;-84
2022/10/06 00:09:09;;;;;;;8.38;4.40;;;13.90;99.90;;;;;;4983150;28;20342;-84
2022/10/06 00:11:37;;;;;;;4.20;3.80;;;13.90;99.90;;;;;;4983875;28;20263;-83
2022/10/06 00:14:07;;;;;;;4.00;3.60;;;13.90;99.90;;;;;;4982841;28;20258;-83
2022/10/06 00:16:39;;;;;;;5.55;3.80;;;13.90;99.90;;;;;;4992336;28;20202;-85
2022/10/06 00:19:06;;;;;;;4.30;3.70;;;14.10;99.90;;;;;;4981437;28;20203;-83
2022/10/06 00:21:37;;;;;;;4.70;4.28;;;14.10;99.90;;;;;;4985206;28;20236;-84
2022/10/06 00:24:04;;;;;;;4.68;3.75;;;14.20;99.90;;;;;;4983615;28;20238;-84
2022/10/06 00:26:31;;;;;;;5.43;3.53;;;14.20;99.90;;;;;;4983055;28;20251;-84
2022/10/06 00:28:58;;;;;;;4.97;4.57;;;14.20;99.90;;;;;;4983393;28;20212;-84
2022/10/06 00:31:26;;;;;;;7.13;4.40;;;14.20;99.90;;;;;;4983800;28;20253;-85
2022/10/06 00:33:54;;;;;;;5.25;3.95;;;14.40;99.90;;;;;;4985829;28;20203;-85
2022/10/06 00:36:22;;;;;;;6.70;4.75;;;14.30;99.90;;;;;;4983239;28;20259;-82
2022/10/06 00:38:49;;;;;;;5.90;4.75;;;14.20;99.90;;;;;;4983384;28;20210;-83
2022/10/06 00:41:17;;;;;;;10.48;5.47;;;14.10;99.90;;;;;;4982615;28;20245;-83
2022/10/06 00:43:55;;;;;;;5.25;3.70;;;14.10;99.90;;;;;;4985320;28;20199;-82
2022/10/06 00:46:29;;;;;;;4.55;4.13;;;14.10;99.90;;;;;;4986800;28;20199;-82
2022/10/06 00:49:17;;;;;;;5.13;3.95;;;13.90;99.90;;;;;;4987078;28;20220;-83
2022/10/06 00:51:59;;;;;;;5.35;4.85;;;13.80;99.90;;;;;;4988217;28;20216;-83
2022/10/06 00:54:29;;;;;;;7.40;3.97;;;13.90;99.90;;;;;;4998322;28;20202;-83
2022/10/06 00:56:56;;;;;;;4.95;3.90;;;14.00;99.90;;;;;;4999447;28;20196;-83
2022/10/06 00:59:26;;;;;;;3.60;3.30;;;13.80;99.90;;;;;;4990696;28;20220;-84
2022/10/06 01:02:15;;;;;;;5.25;4.63;;;13.90;99.90;;;;;;4987140;28;20239;-84
2022/10/06 01:04:48;;;;;;;5.20;3.83;;;14.00;99.90;;;;;;4985081;28;20201;-85
2022/10/06 01:07:19;;;;;;;4.40;3.97;;;14.20;99.90;;;;;;4982989;28;20211;-85
2022/10/06 01:09:48;;;;;;;4.25;3.85;;;14.30;99.90;;;;;;4982965;28;20290;-86
2022/10/06 01:12:15;;;;;;;4.45;4.05;;;14.20;99.90;;;;;;4983368;28;20239;-85
2022/10/06 01:14:44;;;;;;;7.30;4.13;;;14.10;99.90;;;;;;4982244;28;20249;-86
2022/10/06 01:17:28;;;;;;;4.18;3.78;;;14.20;99.90;;;;;;4983159;28;20416;-83
2022/10/06 01:20:02;;;;;;;4.05;3.42;;;14.20;99.90;;;;;;4982630;28;20269;-82
2022/10/06 01:22:34;;;;;;;3.90;3.50;;;14.10;99.90;;;;;;4983377;28;20220;-85
2022/10/06 01:25:04;;;;;;;4.32;3.55;;;14.10;99.90;;;;;;4984422;28;20199;-84
2022/10/06 01:27:33;;;;;;;4.82;3.72;;;14.10;99.90;;;;;;4983160;28;20208;-84
2022/10/06 01:30:02;;;;;;;4.45;3.85;;;14.20;99.90;;;;;;4984746;28;20339;-85
2022/10/06 01:32:33;;;;;;;7.70;4.40;;;14.10;99.90;;;;;;4982606;28;20220;-84
2022/10/06 01:35:03;;;;;;;7.85;3.47;;;14.00;99.90;;;;;;4976129;28;20207;-84
2022/10/06 01:37:33;;;;;;;3.97;3.65;;;14.00;99.90;;;;;;4982022;28;20227;-82
2022/10/06 01:40:01;;;;;;;4.30;4.00;;;14.00;99.90;;;;;;4982398;28;20244;-84
2022/10/06 01:42:31;;;;;;;8.38;3.83;;;13.90;99.90;;;;;;4982044;28;20235;-84
2022/10/06 01:45:01;;;;;;;4.78;3.38;;;14.00;99.90;;;;;;4981125;28;20345;-83
2022/10/06 01:47:30;;;;;;;3.58;3.28;;;14.00;99.90;;;;;;4980833;28;20255;-82
2022/10/06 01:49:58;;;;;;;4.60;4.20;;;13.80;99.90;;;;;;4981838;28;20215;-82
2022/10/06 01:52:27;;;;;;;7.28;5.30;;;14.00;99.90;;;;;;4981714;28;20221;-83
2022/10/06 01:54:54;;;;;;;7.97;4.55;;;14.10;99.90;;;;;;4981291;28;20214;-82
2022/10/06 01:57:25;;;;;;;3.30;3.00;;;14.00;99.90;;;;;;4980441;28;20212;-83
2022/10/06 01:59:52;;;;;;;4.40;3.55;;;14.10;99.90;;;;;;4982129;28;20212;-83
2022/10/06 02:02:20;;;;;;;4.18;3.65;;;13.90;99.90;;;;;;4981557;28;20256;-83
2022/10/06 02:04:48;;;;;;;4.65;4.20;;;13.60;99.90;;;;;;4981497;28;20206;-84
2022/10/06 02:07:15;;;;;;;4.50;3.90;;;13.50;99.90;;;;;;4982081;28;20216;-83
2022/10/06 02:09:46;;;;;;;4.45;4.00;;;13.30;99.90;;;;;;4981618;28;20230;-84
2022/10/06 02:12:16;;;;;;;6.63;4.47;;;13.20;99.90;;;;;;4983689;28;20237;-83
2022/10/06 02:14:43;;;;;;;6.00;4.60;;;13.20;99.90;;;;;;4981975;28;20277;-82
2022/10/06 02:17:12;;;;;;;4.00;3.60;;;13.10;99.90;;;;;;4981327;28;20261;-82
2022/10/06 02:19:40;;;;;;;5.35;4.38;;;13.00;99.90;;;;;;4981065;28;20218;-83
2022/10/06 02:22:07;;;;;;;5.97;4.10;;;13.10;99.90;;;;;;4980414;28;20283;-82
2022/10/06 02:24:34;;;;;;;5.25;3.80;;;13.20;99.90;;;;;;4982893;28;20218;-83
2022/10/06 02:27:04;;;;;;;4.35;3.95;;;13.20;99.90;;;;;;4984785;28;20210;-81
2022/10/06 02:29:32;;;;;;;5.65;4.78;;;13.30;99.90;;;;;;4998010;28;20186;-82
2022/10/06 02:32:01;;;;;;;4.38;3.97;;;13.30;99.90;;;;;;4981696;28;20226;-83
2022/10/06 02:34:28;;;;;;;3.80;3.50;;;13.20;99.90;;;;;;4996192;28;20187;-85
2022/10/06 02:36:58;;;;;;;5.72;3.90;;;13.30;99.90;;;;;;4983323;28;20238;-84
2022/10/06 02:39:27;;;;;;;5.90;3.20;;;13.40;99.90;;;;;;4979107;28;20599;-84
2022/10/06 02:41:56;;;;;;;4.68;4.28;;;13.50;99.90;;;;;;4983208;28;20206;-83
2022/10/06 02:44:24;;;;;;;7.30;4.60;;;13.40;99.90;;;;;;4985107;28;20270;-84
2022/10/06 02:46:52;;;;;;;4.32;3.47;;;13.40;99.90;;;;;;4981812;28;20214;-85
2022/10/06 02:49:20;;;;;;;7.78;3.97;;;13.40;99.90;;;;;;4981640;28;20283;-84
2022/10/06 02:51:47;;;;;;;3.72;3.45;;;13.40;99.90;;;;;;4981005;28;20266;-83
2022/10/06 02:54:14;;;;;;;4.65;3.58;;;13.50;99.90;;;;;;4983264;28;20211;-83
2022/10/06 02:56:42;;;;;;;4.85;4.15;;;13.50;99.90;;;;;;4983033;28;20207;-83
2022/10/06 02:59:09;;;;;;;5.15;4.65;;;13.50;99.90;;;;;;4981914;28;20294;-84
2022/10/06 03:01:37;;;;;;;6.07;3.90;;;13.60;99.90;;;;;;4982716;28;20253;-82
2022/10/06 03:04:04;;;;;;;5.10;4.60;;;13.40;99.90;;;;;;4981533;28;20275;-83
2022/10/06 03:06:35;;;;;;;3.47;3.15;;;13.40;99.90;;;;;;4978200;28;20208;-85
2022/10/06 03:09:06;;;;;;;3.30;2.97;;;13.30;99.90;;;;;;4981387;28;20211;-87
2022/10/06 03:11:35;;;;;;;4.88;4.38;;;13.30;99.90;;;;;;4980676;28;20202;-84
2022/10/06 03:14:04;;;;;;;4.30;3.75;;;13.30;99.90;;;;;;4980800;28;20216;-84
2022/10/06 03:16:38;;;;;;;5.45;4.65;;;13.30;99.90;;;;;;4980572;28;20208;-84
2022/10/06 03:19:07;;;;;;;4.93;4.07;;;13.40;99.90;;;;;;4980977;28;20203;-83
2022/10/06 03:21:37;;;;;;;6.30;5.35;;;13.50;99.90;;;;;;4980089;28;20250;-84
2022/10/06 03:24:06;;;;;;;5.80;4.30;;;13.60;99.90;;;;;;4978150;28;20275;-85
2022/10/06 03:26:38;;;;;;;5.20;4.70;;;13.50;99.90;;;;;;4978158;28;20215;-82
2022/10/06 03:29:06;;;;;;;4.00;3.58;;;13.50;99.90;;;;;;4979134;28;20667;-84
2022/10/06 03:31:38;;;;;;;5.70;4.65;;;13.40;99.90;;;;;;4980188;28;20244;-82
2022/10/06 03:34:12;;;;;;;6.13;5.03;;;13.40;99.90;;;;;;4979183;28;20218;-83
2022/10/06 03:36:40;;;;;;;14.18;5.05;;;13.40;99.90;;;;;;4980635;28;20211;-85
2022/10/06 03:39:12;;;;;;;8.80;5.80;;;13.60;99.90;;;;;;4983598;28;20211;-83
2022/10/06 03:41:39;;;;;;;6.20;4.90;;;13.50;99.90;;;;;;4984145;28;20258;-85
2022/10/06 03:44:08;;;;;;;5.55;4.85;;;13.60;99.90;;;;;;4983302;28;20458;-83
2022/10/06 03:46:36;;;;;;;11.93;4.30;;;13.60;99.90;;;;;;4984886;28;20242;-85
2022/10/06 03:49:03;;;;;;;5.72;5.22;;;13.60;99.90;;;;;;4987006;28;20214;-83
2022/10/06 03:51:37;;;;;;;4.70;4.10;;;13.50;99.90;;;;;;4979761;28;20223;-83
2022/10/06 03:54:09;;;;;;;5.55;4.93;;;13.50;99.90;;;;;;4980476;28;20514;-85
2022/10/06 03:56:39;;;;;;;3.67;3.20;;;13.20;99.90;;;;;;4998948;28;20583;-85
2022/10/06 03:59:09;;;;;;;6.57;4.72;;;13.10;99.90;;;;;;4985991;28;20559;-85
2022/10/06 04:01:38;;;;;;;5.40;4.90;;;13.00;99.90;;;;;;4983656;28;20211;-85
2022/10/06 04:04:09;;;;;;;6.40;5.10;;;13.20;99.90;;;;;;4985330;28;20259;-83
2022/10/06 04:06:38;;;;;;;4.93;4.40;;;13.20;99.90;;;;;;4998621;28;20250;-86
2022/10/06 04:09:10;;;;;;;4.93;3.85;;;13.30;99.90;;;;;;4984313;28;20218;-84
2022/10/06 04:11:43;;;;;;;9.43;4.82;;;13.30;99.90;;;;;;4986106;28;20542;-83
2022/10/06 04:14:13;;;;;;;6.03;4.05;;;13.30;99.90;;;;;;4983874;28;20242;-85
2022/10/06 04:16:49;;;;;;;7.10;4.70;;;13.20;99.90;;;;;;4982096;28;20206;-83
2022/10/06 04:19:16;;;;;;;5.85;5.22;;;13.10;99.90;;;;;;4980590;28;20201;-83
2022/10/06 04:21:45;;;;;;;7.10;4.38;;;13.30;99.90;;;;;;4982243;28;20270;-82
2022/10/06 04:24:12;;;;;;;6.78;5.18;;;13.30;99.90;;;;;;4984053;28;20239;-85
2022/10/06 04:26:48;;;;;;;7.68;4.82;;;13.30;99.90;;;;;;4985652;28;20212;-81
2022/10/06 04:29:16;;;;;;;6.45;5.55;;;13.40;99.90;;;;;;4980539;28;20210;-81
2022/10/06 04:31:43;;;;;;;7.20;4.75;;;13.30;99.90;;;;;;4979516;28;20223;-80
2022/10/06 04:34:13;;;;;;;7.40;5.20;;;13.10;99.90;;;;;;4984906;28;20234;-80
2022/10/06 04:36:41;;;;;;;4.78;4.35;;;12.90;99.90;;;;;;4996718;28;20203;-81
2022/10/06 04:39:09;;;;;;;8.05;5.28;;;13.00;99.90;;;;;;4999025;28;20206;-82
2022/10/06 04:41:39;;;;;;;7.90;4.57;;;13.10;99.90;;;;;;4990887;28;20195;-82
2022/10/06 04:44:07;;;;;;;9.27;4.95;;;12.90;99.90;;;;;;4981779;28;20233;-81
2022/10/06 04:46:34;;;;;;;6.15;4.97;;;12.90;99.90;;;;;;4989314;28;20210;-81
2022/10/06 04:49:11;;;;;;;7.18;5.05;;;12.90;99.90;;;;;;4987717;28;20214;-81
2022/10/06 04:51:49;;;;;;;7.20;5.88;;;13.10;99.90;;;;;;4989691;28;20213;-81
2022/10/06 04:54:34;;;;;;;5.40;4.30;;;13.00;99.90;;;;;;4984920;28;20228;-81
2022/10/06 04:57:03;;;;;;;7.47;5.18;;;12.90;99.90;;;;;;4985748;28;20207;-82
2022/10/06 05:00:24;;;;;;;5.93;5.32;;;12.80;99.90;;;;;;4979227;28;20202;-82
2022/10/06 05:02:56;;;;;;;5.43;4.80;;;12.80;99.90;;;;;;5000788;28;20257;-81
2022/10/06 05:05:23;;;;;;;5.65;5.15;;;12.70;99.90;;;;;;4980728;28;20211;-81
2022/10/06 05:07:50;;;;;;;7.68;4.85;;;12.70;99.90;;;;;;4981324;28;20592;-81
2022/10/06 05:10:19;;;;;;;9.30;4.85;;;12.80;99.90;;;;;;4981845;28;20239;-82
2022/10/06 05:12:47;;;;;;;7.18;4.78;;;13.00;99.90;;;;;;4985733;28;20230;-82
2022/10/06 05:15:14;;;;;;;9.77;5.50;;;13.00;99.90;;;;;;4987682;28;20260;-82
2022/10/06 05:17:43;;;;;;;6.60;5.20;;;13.10;99.90;;;;;;4984094;28;20242;-82
2022/10/06 05:20:10;;;;;;;6.55;4.50;;;13.10;99.90;;;;;;4986235;28;20261;-82
2022/10/06 05:22:39;;;;;;;11.77;6.05;;;13.10;99.90;;;;;;4977838;28;20230;-81
2022/10/06 05:25:06;;;;;;;5.15;4.07;;;12.90;99.90;;;;;;4974227;28;20215;-82
2022/10/06 05:27:33;;;;;;;5.78;4.95;;;13.00;99.90;;;;;;4981033;28;20241;-81
2022/10/06 05:30:00;;;;;;;5.43;4.93;;;13.20;99.90;;;;;;4984093;28;20213;-81
2022/10/06 05:32:34;;;;;;;5.10;4.50;;;13.40;99.90;;;;;;4978688;28;20246;-80
2022/10/06 05:35:02;;;;;;;8.15;5.32;;;13.50;99.90;;;;;;4980859;28;20274;-80
2022/10/06 05:37:38;;;;;;;5.95;4.68;;;13.50;99.90;;;;;;4978240;28;20198;-80
2022/10/06 05:40:06;;;;;;;7.50;5.45;;;13.60;99.90;;;;;;4981804;28;20217;-81
2022/10/06 05:42:33;;;;;;;5.40;4.90;;;13.50;99.90;;;;;;4981712;28;20215;-82
2022/10/06 05:45:01;;;;;;;12.45;9.13;;;13.50;99.90;;;;;;4980905;28;20442;-81
2022/10/06 05:47:42;;;;;;;7.57;4.80;;;13.60;99.90;;;;;;4977149;28;20309;-80
2022/10/06 05:50:09;;;;;;;4.70;4.30;;;13.50;99.90;;;;;;4975758;28;20203;-81
2022/10/06 05:52:37;;;;;;;7.25;4.10;;;13.60;99.90;;;;;;4980566;28;20237;-81
2022/10/06 05:55:05;;;;;;;7.30;4.70;;;13.80;99.90;;;;;;4980914;28;20238;-82
2022/10/06 05:57:32;;;;;;;5.53;5.03;;;13.90;99.90;;;;;;4984606;28;20219;-81
2022/10/06 06:00:00;;;;;;;7.53;4.40;;;13.90;99.90;;;;;;4980117;28;20303;-82
2022/10/06 06:02:29;;;;;;;7.18;3.78;;;13.80;99.90;;;;;;4977995;28;20287;-81
2022/10/06 06:04:56;;;;;;;4.32;3.95;;;13.80;99.90;;;;;;4980533;28;20216;-83
2022/10/06 06:07:23;;;;;;;4.97;4.05;;;14.00;99.90;;;;;;4980635;28;20209;-81
2022/10/06 06:09:50;;;;;;;6.05;4.78;;;14.10;99.90;;;;;;4975087;28;20214;-81
2022/10/06 06:12:18;;;;;;;8.98;4.43;;;14.40;99.90;;;;;;4969260;28;20300;-82
2022/10/06 06:17:31;;;;;;;4.40;4.00;;;15.50;99.90;;;;;;4976755;28;20497;-82
2022/10/06 06:19:59;;;;;;;3.50;3.20;;;16.00;99.90;;;;;;4978978;28;20480;-83
2022/10/06 06:22:26;;;;;;;4.00;3.60;;;16.50;99.90;;;;;;4980686;28;20506;-83
2022/10/06 06:24:54;;;;;;;7.60;3.87;;;17.10;99.90;;;;;;4979988;28;20484;-83
2022/10/06 06:27:25;;;;;;;8.03;3.73;;;17.70;99.90;;;;;;4974797;28;20456;-85
2022/10/06 06:29:56;;;;;;;3.13;2.93;;;18.40;99.90;;;;;;4978386;28;20472;-85
2022/10/06 06:32:26;;;;;;;5.83;3.23;;;18.40;99.90;;;;;;4983206;28;20810;-83
2022/10/06 06:34:58;;;;;;;6.60;3.63;;;18.30;99.90;;;;;;4974341;28;20460;-85
2022/10/06 06:37:25;;;;;;;3.93;3.53;;;18.00;99.90;;;;;;4972546;28;20767;-85
2022/10/06 06:39:52;;;;;;;6.80;4.90;;;17.80;99.90;;;;;;4968907;28;20523;-83
2022/10/06 06:42:20;;;;;;;6.40;4.50;;;17.60;99.90;;;;;;4977531;28;20443;-82
2022/10/06 06:44:48;;;;;;;4.90;4.40;;;17.50;99.90;;;;;;4978278;28;20495;-84
2022/10/06 06:47:17;;;;;;;6.97;3.80;;;17.20;99.90;;;;;;4964495;28;20448;-84
2022/10/06 06:49:48;;;;;;;11.80;3.57;;;17.40;99.90;;;;;;4979816;28;20452;-87
2022/10/06 06:52:15;;;;;;;8.23;3.67;;;17.50;99.90;;;;;;4983922;28;20464;-84
2022/10/06 06:54:42;;;;;;;12.37;4.40;;;17.90;99.90;;;;;;4978422;28;20448;-84
2022/10/06 06:57:09;;;;;;;4.63;3.80;;;17.80;99.90;;;;;;4980638;28;20460;-81
2022/10/06 06:59:37;;;;;;;6.00;3.23;;;17.80;99.90;;;;;;4981165;28;20503;-82
2022/10/06 07:02:04;;;;;;;5.30;3.83;;;17.90;99.90;;;;;;4990955;28;20455;-83
2022/10/06 07:04:36;;;;;;;4.60;3.63;;;17.90;99.90;;;;;;4989751;28;20479;-83
2022/10/06 07:07:04;;;;;;;8.10;3.37;;;17.90;99.90;;;;;;4981968;28;20444;-84
2022/10/06 07:09:32;;;;;;;8.03;3.80;;;18.20;99.90;;;;;;4986693;28;20423;-85
2022/10/06 07:11:59;;;;;;;5.70;3.70;;;18.40;99.90;;;;;;4980239;28;20434;-85
2022/10/06 07:14:35;;;;;;;4.60;2.83;;;19.00;99.90;;;;;;4982656;28;20470;-84
2022/10/06 07:25:23;;;;;;;8.70;3.73;;;21.20;99.90;;;;;;4993877;28;20444;-85
2022/10/06 07:27:53;;;;;;;14.47;4.17;;;21.60;99.90;;;;;;4981291;28;20422;-87
2022/10/06 07:30:26;;;;;;;2.77;2.57;;;21.50;99.90;;;;;;4982029;28;20475;-85
2022/10/06 07:32:53;;;;;;;6.67;3.33;;;21.40;99.90;;;;;;4989639;28;20396;-85
2022/10/06 07:35:23;;;;;;;5.93;3.23;;;21.30;99.90;;;;;;4997365;28;20457;-88
2022/10/06 07:37:53;;;;;;;12.20;4.63;;;21.10;99.90;;;;;;4980503;28;20466;-84
2022/10/06 07:40:21;;;;;;;6.60;3.23;;;20.80;99.90;;;;;;4988682;28;20430;-86
2022/10/06 07:42:48;;;;;;;8.13;3.30;;;20.70;99.90;;;;;;4982379;28;20722;-86
2022/10/06 07:48:19;;;;;;;8.20;3.47;;;20.50;99.90;;;;;;4980284;28;20823;-88
2022/10/06 07:50:48;;;;;;;4.93;3.67;;;20.60;99.90;;;;;;4984383;28;20451;-86
2022/10/06 07:53:17;;;;;;;8.60;3.60;;;20.70;99.90;;;;;;4985133;28;20443;-85
2022/10/06 07:55:46;;;;;;;8.30;3.83;;;20.70;99.90;;;;;;4984747;28;20446;-85
2022/10/06 07:58:21;;;;;;;8.00;3.73;;;20.80;99.90;;;;;;4986833;28;20568;-85
2022/10/06 08:00:52;;;;;;;5.03;3.77;;;21.20;99.90;;;;;;4979856;28;20458;-84
2022/10/06 08:03:21;;;;;;;3.33;3.03;;;21.40;99.90;;;;;;4968684;28;20564;-86
2022/10/06 08:05:57;;;;;;;5.07;4.23;;;21.60;99.90;;;;;;4985010;28;20455;-84
2022/10/06 08:08:28;;;;;;;7.03;4.17;;;21.90;99.90;;;;;;4985719;28;20451;-83
2022/10/06 08:10:58;;;;;;;8.13;3.20;;;22.30;99.90;;;;;;4996795;28;20437;-85
2022/10/06 08:13:27;;;;;;;11.83;3.47;;;22.50;99.90;;;;;;4992168;28;21094;-86
2022/10/06 08:16:03;;;;;;;3.50;3.20;;;22.40;99.90;;;;;;4989326;28;20451;-87
2022/10/06 08:18:32;;;;;;;5.83;3.60;;;22.00;99.90;;;;;;4979653;28;20426;-87
2022/10/06 08:21:14;;;;;;;8.40;5.03;;;22.00;99.90;;;;;;4995266;28;20542;-85
2022/10/06 08:23:44;;;;;;;4.90;3.63;;;21.80;99.90;;;;;;4988403;28;20498;-86
2022/10/06 08:26:16;;;;;;;7.03;3.40;;;21.50;99.90;;;;;;4988546;28;20811;-86
2022/10/06 08:28:51;;;;;;;6.20;3.63;;;21.50;99.90;;;;;;4968431;28;20455;-84
2022/10/06 08:31:29;;;;;;;5.90;3.20;;;21.80;99.90;;;;;;4984645;28;20436;-81
2022/10/06 08:33:56;;;;;;;6.53;3.83;;;22.30;99.90;;;;;;4982948;28;20427;-85
2022/10/06 08:36:25;;;;;;;3.27;2.97;;;22.00;99.90;;;;;;4983798;28;20726;-85
2022/10/06 08:38:58;;;;;;;2.90;2.10;;;21.50;99.90;;;;;;4979089;28;20514;-86
2022/10/06 08:41:30;;;;;;;3.73;3.27;;;21.10;99.90;;;;;;4981959;28;20624;-84
2022/10/06 08:44:17;;;;;;;4.37;3.20;;;20.70;99.90;;;;;;4981431;28;20533;-88
2022/10/06 08:46:55;;;;;;;5.13;2.63;;;20.30;99.90;;;;;;4985451;28;20415;-88
2022/10/06 08:49:26;;;;;;;3.00;2.37;;;20.10;99.90;;;;;;4983110;28;20490;-88
2022/10/06 08:52:16;;;;;;;3.00;2.80;;;20.10;99.90;;;;;;4965342;28;20458;-87
2022/10/06 08:54:44;;;;;;;7.57;2.87;;;20.10;99.90;;;;;;4983404;28;21484;-85
2022/10/06 08:57:54;;;;;;;3.30;2.60;;;20.20;99.90;;;;;;4983169;28;20512;-85
2022/10/06 09:00:21;;;;;;;4.23;2.70;;;19.90;99.90;;;;;;4962389;29;20488;-86
2022/10/06 09:02:49;;;;;;;6.90;2.43;;;19.80;99.90;;;;;;4965225;29;20470;-86
2022/10/06 09:05:24;;;;;;;3.87;2.60;;;19.90;99.90;;;;;;4983683;28;20500;-86
2022/10/06 09:08:34;;;;;;;3.00;2.70;;;19.90;99.90;;;;;;4990089;28;20415;-84
2022/10/06 09:11:20;;;;;;;8.40;2.93;;;19.90;99.90;;;;;;4983164;28;20465;-87
2022/10/06 09:13:58;;;;;;;4.23;2.23;;;20.00;99.90;;;;;;4980543;28;20740;-90
2022/10/06 09:16:36;;;;;;;3.60;2.70;;;19.90;99.90;;;;;;4985730;28;20474;-85
2022/10/06 09:19:26;;;;;;;4.17;3.03;;;19.80;99.90;;;;;;5000188;28;20419;-81
2022/10/06 09:22:03;;;;;;;3.03;2.40;;;19.90;99.90;;;;;;4987147;28;20443;-84
2022/10/06 09:24:44;;;;;;;3.80;2.90;;;20.20;99.90;;;;;;4981646;28;20932;-86
2022/10/06 09:27:22;;;;;;;5.40;3.40;;;20.20;99.90;;;;;;4980487;28;20453;-85
2022/10/06 09:29:50;;;;;;;2.77;2.10;;;20.10;99.90;;;;;;4972315;28;20450;-89
2022/10/06 09:32:19;;;;;;;2.70;2.50;;;20.00;99.90;;;;;;4979939;28;20501;-86
2022/10/06 09:34:52;;;;;;;3.13;2.93;;;19.80;99.90;;;;;;4985256;28;20488;-87
2022/10/06 09:37:20;;;;;;;3.80;2.77;;;19.60;99.90;;;;;;4984535;28;20433;-87
2022/10/06 09:39:50;;;;;;;3.17;2.90;;;19.40;99.90;;;;;;4966524;28;20489;-87
2022/10/06 09:42:34;;;;;;;3.73;3.07;;;19.10;99.90;;;;;;4982981;28;20451;-85
2022/10/06 09:45:13;;;;;;;4.63;3.10;;;18.90;99.90;;;;;;4980774;28;20508;-87
2022/10/06 09:47:45;;;;;;;4.10;2.93;;;18.80;99.90;;;;;;4982960;28;20440;-85
2022/10/06 09:50:24;;;;;;;5.37;3.00;;;18.90;99.90;;;;;;4994091;28;20468;-89
2022/10/06 09:52:59;;;;;;;4.63;3.17;;;18.90;99.90;;;;;;4987443;28;20464;-89
2022/10/06 09:55:41;;;;;;;4.00;3.70;;;19.00;99.90;;;;;;4983352;28;20444;-84
2022/10/06 09:58:36;;;;;;;5.83;3.40;;;18.90;99.90;;;;;;4983179;28;20886;-87
2022/10/06 10:01:11;;;;;;;4.63;2.33;;;18.70;99.90;;;;;;4975325;28;20934;-86
2022/10/06 10:03:53;;;;;;;3.23;2.93;;;18.50;99.90;;;;;;4979999;28;20457;-88
2022/10/06 10:06:40;;;;;;;8.10;3.83;;;18.40;99.90;;;;;;4978890;28;20467;-83
2022/10/06 10:09:20;;;;;;;3.60;2.67;;;18.40;99.90;;;;;;4978876;28;20464;-85
2022/10/06 10:14:53;;;;;;;3.37;2.73;;;18.60;99.90;;;;;;4982802;28;20424;-87
2022/10/06 10:17:33;;;;;;;2.70;2.50;;;18.80;99.90;;;;;;4982078;28;20453;-84
2022/10/06 10:20:01;;;;;;;3.87;3.27;;;18.50;99.90;;;;;;4981879;28;20444;-87
2022/10/06 10:22:39;;;;;;;5.40;2.43;;;18.30;99.90;;;;;;4978369;28;20452;-87
2022/10/06 10:25:43;;;;;;;4.13;3.50;;;18.00;99.90;;;;;;4984717;28;20666;-86
2022/10/06 10:28:21;;;;;;;2.70;2.10;;;18.00;99.90;;;;;;4980937;28;20458;-85
2022/10/06 10:31:03;;;;;;;2.17;1.97;;;17.70;99.90;;;;;;4976255;28;20417;-87
2022/10/06 10:34:01;;;;;;;4.90;2.30;;;17.60;99.90;;;;;;4978308;28;20431;-81
2022/10/06 10:36:52;;;;;;;1.70;1.60;;;17.40;99.90;;;;;;4976759;28;20451;-82
2022/10/06 10:39:38;;;;;;;1.90;1.53;;;17.40;99.90;;;;;;4992161;28;20423;-87
2022/10/06 10:42:17;;;;;;;2.27;1.50;;;17.40;99.90;;;;;;4975680;28;20515;-86
2022/10/06 10:44:58;;;;;;;2.30;1.47;;;17.50;99.90;;;;;;4979868;28;20491;-86
2022/10/06 10:47:33;;;;;;;2.40;1.67;;;17.50;99.90;;;;;;4982807;28;20443;-87
2022/10/06 10:50:12;;;;;;;3.33;1.67;;;17.50;99.90;;;;;;4984837;28;20439;-87
2022/10/06 10:52:44;;;;;;;4.40;1.70;;;17.60;99.90;;;;;;4984295;28;20466;-88
2022/10/06 10:55:28;;;;;;;1.73;1.63;;;17.70;99.90;;;;;;4985069;28;20764;-86
2022/10/06 10:58:00;;;;;;;2.97;1.20;;;17.70;99.90;;;;;;4985211;28;20444;-86
2022/10/06 11:00:33;;;;;;;0.97;0.93;;;17.70;99.90;;;;;;4986181;28;20463;-85
2022/10/06 11:03:00;;;;;;;4.00;1.37;;;17.60;99.90;;;;;;4994274;28;20452;-87
2022/10/06 11:05:43;;;;;;;1.00;0.70;;;17.80;99.90;;;;;;4984513;28;20488;-86
2022/10/06 11:08:28;;;;;;;2.37;1.13;;;17.90;99.90;;;;;;4983136;28;20441;-83
2022/10/06 11:10:59;;;;;;;2.50;1.10;;;18.00;99.90;;;;;;4979295;28;20460;-86
2022/10/06 11:13:41;;;;;;;7.20;1.30;;;18.10;99.90;;;;;;4991232;28;20451;-84
2022/10/06 11:16:14;;;;;;;1.63;0.90;;;18.20;99.90;;;;;;4984687;28;20440;-88
2022/10/06 11:19:13;;;;;;;1.90;1.17;;;18.20;99.90;;;;;;4985341;28;21027;-85
2022/10/06 11:21:55;;;;;;;4.40;1.70;;;18.70;99.90;;;;;;4986357;28;20512;-86
2022/10/06 11:24:46;;;;;;;1.53;1.17;;;18.90;99.90;;;;;;4985948;28;20726;-86
2022/10/06 11:27:42;;;;;;;1.20;1.10;;;18.90;99.90;;;;;;4984035;28;20474;-87
2022/10/06 11:30:12;;;;;;;3.43;1.33;;;18.80;99.90;;;;;;4987290;28;20443;-84
2022/10/06 11:33:16;;;;;;;1.03;0.97;;;18.60;99.90;;;;;;4997457;28;20475;-86
2022/10/06 11:35:45;;;;;;;1.07;0.97;;;18.40;99.90;;;;;;4985975;28;20440;-86
2022/10/06 11:38:23;;;;;;;0.80;0.80;;;18.20;99.90;;;;;;4986412;28;20460;-89
2022/10/06 11:41:12;;;;;;;1.63;1.10;;;18.10;99.90;;;;;;4982658;28;20462;-88
2022/10/06 11:43:59;;;;;;;1.20;1.10;;;18.20;99.90;;;;;;4983721;28;20667;-87
2022/10/06 11:46:51;;;;;;;3.53;1.00;;;18.40;99.90;;;;;;4982801;28;20440;-87
2022/10/06 11:49:34;;;;;;;2.50;0.70;;;18.90;99.90;;;;;;4988146;28;20806;-83
2022/10/06 11:52:12;;;;;;;4.10;1.17;;;19.20;99.90;;;;;;4997989;28;20418;-85
2022/10/06 11:54:46;;;;;;;1.63;1.23;;;19.20;99.90;;;;;;5000096;28;20495;-89
2022/10/06 11:57:21;;;;;;;4.73;1.17;;;19.40;99.90;;;;;;5003697;28;20467;-86
2022/10/06 12:00:15;;;;;;;1.70;0.80;;;19.40;99.90;;;;;;4973995;28;20418;-89
2022/10/06 12:02:45;;;;;;;3.50;1.33;;;19.50;99.90;;;;;;4989016;28;20447;-88
2022/10/06 12:05:18;;;;;;;1.00;0.90;;;19.90;99.90;;;;;;4985143;28;20488;-83
2022/10/06 12:08:08;;;;;;;1.37;1.17;;;19.70;99.90;;;;;;4981888;28;20400;-86
2022/10/06 12:10:48;;;;;;;1.30;1.07;;;19.60;99.90;;;;;;4984143;28;20494;-88
2022/10/06 12:13:38;;;;;;;2.20;1.70;;;19.40;99.90;;;;;;4986248;28;20414;-82
2022/10/06 12:16:42;;;;;;;1.60;1.33;;;19.40;99.90;;;;;;4984267;28;20451;-86
2022/10/06 12:19:54;;;;;;;4.03;1.30;;;19.40;99.90;;;;;;4987566;28;20411;-82
2022/10/06 12:22:30;;;;;;;3.50;1.60;;;19.50;99.90;;;;;;4985347;28;20440;-84
2022/10/06 12:25:29;;;;;;;4.97;1.57;;;19.30;99.90;;;;;;4987666;28;20454;-84
2022/10/06 12:28:31;;;;;;;1.20;1.00;;;19.30;99.90;;;;;;4988544;28;20464;-85
2022/10/06 12:31:42;;;;;;;5.23;1.60;;;19.40;99.90;;;;;;4991767;28;20577;-85
2022/10/06 12:34:38;;;;;;;1.57;0.90;;;19.20;99.90;;;;;;4993832;28;20524;-84
2022/10/06 12:37:40;;;;;;;2.10;1.03;;;19.40;99.90;;;;;;4986940;28;20460;-88
2022/10/06 12:40:39;;;;;;;2.20;1.37;;;19.50;99.90;;;;;;4984343;28;20444;-86
2022/10/06 12:43:17;;;;;;;5.67;1.53;;;19.60;99.90;;;;;;4984204;28;20432;-84
2022/10/06 12:46:20;;;;;;;9.93;2.50;;;19.50;99.90;;;;;;4982111;28;20630;-86
2022/10/06 12:48:54;;;;;;;3.83;1.40;;;19.50;99.90;;;;;;4977088;28;20868;-86
2022/10/06 12:51:37;;;;;;;3.07;1.23;;;19.40;99.90;;;;;;4986042;28;20516;-84
2022/10/06 12:54:19;;;;;;;1.50;1.10;;;19.30;99.90;;;;;;4979804;28;20552;-89
2022/10/06 12:57:15;;;;;;;2.40;2.20;;;19.10;99.90;;;;;;4981606;28;20456;-87
2022/10/06 12:59:42;;;;;;;1.17;0.93;;;19.20;99.90;;;;;;4982675;28;20450;-85
2022/10/06 13:02:19;;;;;;;2.17;1.27;;;19.40;99.90;;;;;;4981037;28;20464;-87
2022/10/06 13:05:00;;;;;;;1.90;1.20;;;19.40;99.90;;;;;;4984549;28;20517;-89
2022/10/06 13:07:32;;;;;;;3.37;1.30;;;19.40;99.90;;;;;;4980301;28;20831;-87
2022/10/06 13:10:20;;;;;;;9.50;1.00;;;19.20;99.90;;;;;;4978116;28;21020;-86
2022/10/06 13:12:51;;;;;;;5.80;1.27;;;19.00;99.90;;;;;;4964298;28;20448;-87
2022/10/06 13:15:24;;;;;;;3.20;1.20;;;18.80;99.90;;;;;;4973600;28;21114;-87
2022/10/06 13:17:56;;;;;;;3.87;1.27;;;18.50;99.90;;;;;;4984185;28;20486;-84
2022/10/06 13:20:35;;;;;;;2.43;1.20;;;18.20;99.90;;;;;;4978466;28;20474;-86
2022/10/06 13:23:16;;;;;;;2.33;1.57;;;18.00;99.90;;;;;;4980493;28;20796;-84
2022/10/06 13:25:47;;;;;;;8.00;1.47;;;17.90;99.90;;;;;;4981401;28;20793;-89
2022/10/06 13:28:42;;;;;;;5.70;1.73;;;17.70;99.90;;;;;;4975060;28;20440;-84
2022/10/06 13:31:26;;;;;;;3.33;1.00;;;17.70;99.90;;;;;;4993004;28;20436;-87
2022/10/06 13:34:10;;;;;;;4.90;2.50;;;17.60;99.90;;;;;;4993672;28;20529;-85
2022/10/06 13:36:45;;;;;;;2.00;1.50;;;17.50;99.90;;;;;;4983365;28;20446;-87
2022/10/06 13:39:21;;;;;;;6.77;1.53;;;17.50;99.90;;;;;;4981746;28;20471;-86